Time;durP1;ratioP1;P1;durP2;ratioP2;P2;SDS_P1;SDS_P2;PMS_P1;PMS_P2;Temp;Humidity;BMP_temperature;BMP_pressure;BME280_temperature;BME280_humidity;BME280_pressure;Samples;Min_cycle;Max_cycle;Signal;HPM_P1;HPM_P2
2023/04/22 00:00:03;;;;;;;8.60;4.97;;;;;;;16.33;50.28;96827.53;5072807;28;20459;-70
2023/04/22 00:02:28;;;;;;;5.63;5.03;;;;;;;16.34;51.33;96827.34;5046157;28;20939;-69
2023/04/22 00:04:56;;;;;;;4.90;4.40;;;;;;;16.31;51.85;96829.59;5069918;28;20472;-71
2023/04/22 00:07:21;;;;;;;6.10;4.50;;;;;;;16.26;51.72;96820.41;5087239;28;20180;-68
2023/04/22 00:09:47;;;;;;;5.47;4.00;;;;;;;16.29;51.18;96816.53;5079301;28;20435;-71
2023/04/22 00:12:12;;;;;;;5.60;4.10;;;;;;;16.35;51.00;96821.06;5080416;28;20208;-71
2023/04/22 00:14:38;;;;;;;4.97;4.10;;;;;;;16.34;50.90;96819.41;5077205;28;20289;-73
2023/04/22 00:17:03;;;;;;;5.00;3.27;;;;;;;16.27;51.28;96821.22;5074731;28;20193;-71
2023/04/22 00:19:29;;;;;;;5.13;3.70;;;;;;;16.27;51.12;96818.56;5065074;28;20210;-70
2023/04/22 00:21:55;;;;;;;6.10;3.77;;;;;;;16.26;51.15;96816.94;5071593;28;20215;-70
2023/04/22 00:24:20;;;;;;;8.07;3.80;;;;;;;16.22;51.80;96821.00;5097478;28;20181;-70
2023/04/22 00:26:45;;;;;;;5.37;3.90;;;;;;;16.23;52.28;96817.34;5082591;28;20185;-70
2023/04/22 00:29:11;;;;;;;3.87;3.50;;;;;;;16.30;51.60;96818.19;5085937;28;20274;-71
2023/04/22 00:31:36;;;;;;;5.43;3.33;;;;;;;16.32;50.94;96815.34;5070054;28;20197;-71
2023/04/22 00:34:02;;;;;;;4.90;3.80;;;;;;;16.28;51.85;96820.19;5094189;28;20216;-71
2023/04/22 00:36:27;;;;;;;5.40;3.37;;;;;;;16.11;52.43;96817.91;5097387;28;20196;-73
2023/04/22 00:38:53;;;;;;;4.40;4.00;;;;;;;16.14;52.63;96811.41;5063350;28;20284;-70
2023/04/22 00:41:19;;;;;;;9.03;3.93;;;;;;;16.16;52.61;96817.31;5093211;28;20201;-70
2023/04/22 00:43:45;;;;;;;4.67;3.90;;;;;;;16.19;52.56;96806.34;5071665;28;20365;-70
2023/04/22 00:46:10;;;;;;;3.83;3.50;;;;;;;16.19;52.36;96806.34;5088721;28;20185;-70
2023/04/22 00:48:37;;;;;;;4.60;3.70;;;;;;;16.21;52.16;96814.09;5081269;28;20454;-72
2023/04/22 00:51:02;;;;;;;7.30;3.90;;;;;;;16.20;51.84;96807.97;5070137;28;20338;-71
2023/04/22 00:53:28;;;;;;;3.87;3.40;;;;;;;16.01;52.19;96812.16;5070183;28;20471;-71
2023/04/22 00:55:53;;;;;;;3.30;3.00;;;;;;;16.03;52.40;96807.50;5065278;28;20449;-71
2023/04/22 00:58:20;;;;;;;4.03;3.40;;;;;;;16.06;52.24;96817.69;5067287;28;20712;-70
2023/04/22 01:00:45;;;;;;;5.00;3.90;;;;;;;16.11;52.37;96811.78;5088020;28;20212;-70
2023/04/22 01:03:11;;;;;;;5.83;4.07;;;;;;;16.07;52.56;96811.38;5070377;28;20499;-70
2023/04/22 01:05:36;;;;;;;6.37;3.63;;;;;;;16.10;52.67;96813.63;5088302;28;20212;-70
2023/04/22 01:08:02;;;;;;;3.93;3.53;;;;;;;15.99;52.93;96810.72;5070042;28;20178;-71
2023/04/22 01:10:28;;;;;;;4.90;3.50;;;;;;;15.93;53.22;96812.31;5088369;28;20209;-71
2023/04/22 01:12:53;;;;;;;5.43;3.30;;;;;;;15.94;53.59;96813.97;5058132;28;20252;-72
2023/04/22 01:15:19;;;;;;;6.03;3.43;;;;;;;15.88;53.76;96804.19;5086720;28;20264;-71
2023/04/22 01:17:44;;;;;;;4.07;3.20;;;;;;;15.86;53.79;96807.00;5091492;28;20181;-72
2023/04/22 01:20:10;;;;;;;5.50;3.33;;;;;;;15.86;53.83;96803.56;5047874;28;20239;-71
2023/04/22 01:22:40;;;;;;;4.30;3.77;;;;;;;15.90;53.04;96812.72;5095159;28;20268;-71
2023/04/22 01:25:07;;;;;;;4.40;3.53;;;;;;;15.88;53.08;96812.91;5095265;28;20420;-72
2023/04/22 01:27:32;;;;;;;4.13;3.20;;;;;;;15.82;52.73;96817.13;5088074;28;20471;-70
2023/04/22 01:29:58;;;;;;;3.47;3.17;;;;;;;15.71;53.18;96807.13;5092436;28;20514;-71
2023/04/22 01:32:23;;;;;;;7.20;3.83;;;;;;;15.70;53.45;96808.13;5077203;28;20215;-72
2023/04/22 01:34:49;;;;;;;5.30;3.60;;;;;;;15.71;53.68;96806.28;5094960;28;20221;-70
2023/04/22 01:37:14;;;;;;;4.90;3.57;;;;;;;15.69;53.74;96801.22;5076130;28;20885;-70
2023/04/22 01:39:40;;;;;;;5.80;3.33;;;;;;;15.76;53.19;96807.31;5087536;28;20201;-71
2023/04/22 01:42:05;;;;;;;3.90;3.50;;;;;;;15.77;53.11;96816.88;5053676;28;20263;-70
2023/04/22 01:44:31;;;;;;;5.60;4.07;;;;;;;15.78;53.67;96810.59;5088589;28;20184;-71
2023/04/22 01:46:56;;;;;;;11.43;3.90;;;;;;;15.82;53.65;96811.00;5062733;28;20604;-73
2023/04/22 01:49:22;;;;;;;4.50;4.00;;;;;;;15.77;53.61;96806.31;5087724;28;20209;-70
2023/04/22 01:51:47;;;;;;;9.20;4.13;;;;;;;15.72;54.06;96807.91;5072077;28;20268;-72
2023/04/22 01:54:13;;;;;;;4.20;3.43;;;;;;;15.74;54.01;96821.75;5075699;28;20201;-71
2023/04/22 01:56:39;;;;;;;22.00;14.43;;;;;;;15.63;53.99;96807.25;5047947;28;20591;-71
2023/04/22 01:59:06;;;;;;;15.93;12.80;;;;;;;15.67;54.04;96819.06;5074499;28;20538;-71
2023/04/22 02:01:31;;;;;;;7.20;5.13;;;;;;;15.62;54.24;96808.28;5097490;28;20472;-72
2023/04/22 02:03:56;;;;;;;4.57;3.60;;;;;;;15.62;54.01;96810.94;5061239;28;20503;-71
2023/04/22 02:06:22;;;;;;;5.03;3.83;;;;;;;15.59;53.94;96816.59;5070325;28;20571;-70
2023/04/22 02:08:47;;;;;;;5.57;3.70;;;;;;;15.54;54.10;96811.91;5039585;28;20268;-72
2023/04/22 02:11:13;;;;;;;4.63;3.50;;;;;;;15.57;53.96;96815.97;5073751;28;20189;-70
2023/04/22 02:13:39;;;;;;;3.73;3.43;;;;;;;15.61;53.91;96815.38;5073941;28;20223;-71
2023/04/22 02:16:05;;;;;;;4.00;3.27;;;;;;;15.64;53.61;96812.34;5074536;28;20185;-70
2023/04/22 02:18:30;;;;;;;4.37;3.80;;;;;;;15.50;53.87;96816.72;5097396;28;20423;-70
2023/04/22 02:20:56;;;;;;;5.03;3.53;;;;;;;15.54;54.21;96813.69;5073102;28;20443;-69
2023/04/22 02:23:22;;;;;;;4.27;3.87;;;;;;;15.51;54.37;96815.72;5091688;28;20185;-70
2023/04/22 02:25:51;;;;;;;5.23;3.60;;;;;;;15.41;54.53;96814.44;5073584;28;20569;-70
2023/04/22 02:28:17;;;;;;;8.07;3.43;;;;;;;15.34;54.89;96824.97;5074763;28;20446;-71
2023/04/22 02:30:44;;;;;;;4.43;4.00;;;;;;;15.33;54.76;96812.75;5073277;28;20490;-71
2023/04/22 02:33:09;;;;;;;6.63;3.73;;;;;;;15.32;54.72;96822.50;5091333;28;20877;-70
2023/04/22 02:35:35;;;;;;;3.70;3.40;;;;;;;15.32;54.90;96824.31;5099284;28;20604;-72
2023/04/22 02:38:00;;;;;;;4.60;4.20;;;;;;;15.29;55.04;96827.34;5091197;28;20186;-71
2023/04/22 02:40:26;;;;;;;4.37;3.80;;;;;;;15.28;55.08;96828.34;5073175;28;20221;-71
2023/04/22 02:42:51;;;;;;;5.60;4.00;;;;;;;15.34;54.89;96820.47;5099082;28;20185;-72
2023/04/22 02:45:16;;;;;;;4.93;3.87;;;;;;;15.37;55.08;96824.59;5098654;28;20747;-71
2023/04/22 02:47:42;;;;;;;5.10;4.00;;;;;;;15.39;54.92;96833.09;5084175;28;20193;-72
2023/04/22 02:50:08;;;;;;;4.03;3.73;;;;;;;15.41;54.77;96841.66;5097890;28;20215;-69
2023/04/22 02:52:33;;;;;;;4.80;3.77;;;;;;;15.35;55.01;96837.94;5091254;28;20186;-71
2023/04/22 02:54:59;;;;;;;8.83;3.90;;;;;;;15.34;55.15;96835.50;5092639;28;20464;-71
2023/04/22 02:57:25;;;;;;;7.00;3.53;;;;;;;15.30;55.21;96839.53;5098453;28;20281;-69
2023/04/22 02:59:50;;;;;;;3.80;3.50;;;;;;;15.33;54.96;96828.59;5091771;28;20448;-72
2023/04/22 03:02:16;;;;;;;4.93;4.10;;;;;;;15.33;55.08;96820.69;5058992;28;20190;-70
2023/04/22 03:04:41;;;;;;;8.53;5.67;;;;;;;15.29;54.85;96822.06;5071554;28;20178;-70
2023/04/22 03:07:07;;;;;;;11.53;9.13;;;;;;;15.17;55.07;96825.22;5102489;28;20189;-71
2023/04/22 03:09:32;;;;;;;8.07;5.20;;;;;;;15.14;55.04;96828.25;5092399;28;20624;-70
2023/04/22 03:11:58;;;;;;;5.00;4.50;;;;;;;15.16;55.15;96822.78;5072930;28;20189;-70
2023/04/22 03:14:23;;;;;;;7.67;4.90;;;;;;;15.17;55.07;96824.44;5087298;28;20216;-71
2023/04/22 03:16:49;;;;;;;11.13;5.83;;;;;;;15.15;55.13;96819.31;5080122;28;20189;-71
2023/04/22 03:19:15;;;;;;;7.97;5.50;;;;;;;15.13;54.79;96826.59;5091178;28;20326;-69
2023/04/22 03:21:40;;;;;;;14.43;5.63;;;;;;;15.08;55.10;96834.28;5090025;28;20319;-69
2023/04/22 03:24:06;;;;;;;5.83;4.67;;;;;;;15.09;54.70;96829.81;5073217;28;21236;-70
2023/04/22 03:26:31;;;;;;;4.30;3.80;;;;;;;15.02;55.21;96832.41;5078430;28;20189;-70
2023/04/22 03:28:57;;;;;;;4.30;3.90;;;;;;;15.05;54.74;96826.75;5056139;28;20217;-70
2023/04/22 03:31:22;;;;;;;4.60;3.63;;;;;;;15.04;54.88;96830.38;5089780;28;20581;-70
2023/04/22 03:33:47;;;;;;;4.50;4.10;;;;;;;15.07;54.98;96830.03;5050812;28;20637;-70
2023/04/22 03:36:13;;;;;;;5.83;4.07;;;;;;;15.09;54.65;96838.56;5083361;28;20272;-68
2023/04/22 03:38:38;;;;;;;4.40;4.00;;;;;;;15.03;54.74;96837.50;5088871;28;20297;-69
2023/04/22 03:41:04;;;;;;;6.37;4.37;;;;;;;15.08;54.46;96841.38;5055085;28;20173;-72
2023/04/22 03:43:30;;;;;;;8.50;4.20;;;;;;;14.97;54.37;96842.72;5088496;28;20765;-71
2023/04/22 03:45:55;;;;;;;8.60;4.27;;;;;;;14.88;54.52;96837.56;5056958;28;20188;-71
2023/04/22 03:48:20;;;;;;;5.43;4.40;;;;;;;14.87;54.57;96841.19;5054825;28;20190;-71
2023/04/22 03:50:46;;;;;;;7.53;5.53;;;;;;;14.99;54.16;96841.53;5089030;28;20284;-71
2023/04/22 03:53:11;;;;;;;6.50;5.90;;;;;;;15.08;54.24;96850.13;5094432;28;20279;-71
2023/04/22 03:55:37;;;;;;;8.00;6.07;;;;;;;15.15;54.08;96845.72;5073227;28;20673;-72
2023/04/22 03:58:02;;;;;;;7.90;5.77;;;;;;;15.16;54.47;96849.97;5073433;28;20234;-70
2023/04/22 04:00:28;;;;;;;6.37;4.83;;;;;;;15.12;54.45;96854.00;5076293;28;20518;-71
2023/04/22 04:02:53;;;;;;;8.20;4.93;;;;;;;15.09;54.44;96849.13;5070883;28;20185;-71
2023/04/22 04:05:19;;;;;;;4.70;4.30;;;;;;;15.06;54.69;96849.50;5077291;28;20272;-70
2023/04/22 04:07:44;;;;;;;6.37;4.90;;;;;;;14.97;55.02;96840.09;5084542;28;20183;-70
2023/04/22 04:10:10;;;;;;;6.70;4.60;;;;;;;14.96;55.07;96841.09;5092723;28;20292;-71
2023/04/22 04:12:35;;;;;;;5.20;4.70;;;;;;;14.88;55.41;96842.03;5088751;28;20551;-71
2023/04/22 04:15:00;;;;;;;7.83;5.30;;;;;;;14.73;55.79;96836.81;5069657;28;20205;-71
2023/04/22 04:17:27;;;;;;;5.50;4.13;;;;;;;14.67;55.83;96845.44;5083681;28;20201;-71
2023/04/22 04:19:53;;;;;;;4.80;4.37;;;;;;;14.63;55.96;96838.88;5071709;28;20202;-71
2023/04/22 04:22:19;;;;;;;7.17;4.60;;;;;;;14.66;55.79;96838.53;5074406;28;20439;-69
2023/04/22 04:24:46;;;;;;;5.70;5.10;;;;;;;14.63;55.82;96845.00;5087421;28;20451;-70
2023/04/22 04:27:12;;;;;;;9.60;4.97;;;;;;;14.64;55.60;96843.16;5070354;28;20221;-69
2023/04/22 04:29:38;;;;;;;4.90;4.43;;;;;;;14.63;55.51;96842.34;5088521;28;20449;-71
2023/04/22 04:32:04;;;;;;;6.83;4.77;;;;;;;14.58;55.89;96840.28;5089071;28;21186;-69
2023/04/22 04:34:31;;;;;;;4.90;4.50;;;;;;;14.55;56.00;96843.28;5072460;28;20237;-69
2023/04/22 04:36:56;;;;;;;7.80;4.87;;;;;;;14.62;55.97;96834.66;5074194;28;20235;-69
2023/04/22 04:39:22;;;;;;;5.27;4.60;;;;;;;14.58;55.98;96832.38;5076468;28;20870;-69
2023/04/22 04:41:48;;;;;;;6.80;4.83;;;;;;;14.56;56.19;96834.38;5076435;28;20189;-69
2023/04/22 04:44:14;;;;;;;6.30;5.40;;;;;;;14.63;56.12;96828.34;5079754;28;20463;-69
2023/04/22 04:46:40;;;;;;;6.27;4.60;;;;;;;14.63;55.62;96820.44;5089928;28;20189;-71
2023/04/22 04:49:08;;;;;;;5.67;4.03;;;;;;;14.65;54.45;96827.16;5090979;28;20470;-70
2023/04/22 04:51:34;;;;;;;6.83;4.50;;;;;;;14.66;54.76;96823.53;5059221;28;20726;-69
2023/04/22 04:53:59;;;;;;;6.97;4.80;;;;;;;14.72;55.04;96830.72;5070196;28;20453;-70
2023/04/22 04:56:25;;;;;;;4.67;4.00;;;;;;;14.82;53.38;96826.94;5086677;28;20205;-71
2023/04/22 04:58:50;;;;;;;5.70;4.10;;;;;;;14.86;53.70;96823.75;5067843;28;20261;-72
2023/04/22 05:01:15;;;;;;;5.07;4.00;;;;;;;14.78;54.52;96821.22;5091913;28;20267;-70
2023/04/22 05:03:41;;;;;;;9.10;4.50;;;;;;;14.74;55.07;96817.34;5093114;28;20256;-73
2023/04/22 05:06:06;;;;;;;4.73;4.30;;;;;;;14.76;55.09;96815.31;5087583;28;20202;-72
2023/04/22 05:08:32;;;;;;;5.57;4.13;;;;;;;14.74;54.74;96812.06;5069355;28;20181;-70
2023/04/22 05:10:58;;;;;;;5.07;4.40;;;;;;;14.80;54.38;96818.41;5017806;28;20210;-70
2023/04/22 05:13:23;;;;;;;4.87;4.10;;;;;;;14.87;54.49;96824.56;5086868;28;20199;-70
2023/04/22 05:15:49;;;;;;;8.43;4.07;;;;;;;14.83;54.92;96818.84;5064238;28;20181;-71
2023/04/22 05:18:14;;;;;;;5.63;4.40;;;;;;;14.76;55.04;96817.16;5089440;28;20179;-70
2023/04/22 05:20:40;;;;;;;6.73;4.70;;;;;;;14.81;54.87;96820.84;5084989;28;20202;-70
2023/04/22 05:23:05;;;;;;;5.50;4.00;;;;;;;14.83;54.92;96813.56;5086402;28;20260;-71
2023/04/22 05:25:30;;;;;;;4.57;4.17;;;;;;;14.84;54.91;96824.94;5084037;28;20193;-71
2023/04/22 05:27:56;;;;;;;7.53;4.43;;;;;;;14.86;54.71;96823.75;5059052;28;20189;-69
2023/04/22 05:30:21;;;;;;;5.53;3.93;;;;;;;14.86;54.34;96830.84;5063543;28;20689;-71
2023/04/22 05:32:47;;;;;;;3.60;3.30;;;;;;;14.74;54.64;96836.63;5089407;28;20189;-71
2023/04/22 05:35:12;;;;;;;7.33;3.90;;;;;;;14.80;55.19;96837.69;5087980;28;20189;-71
2023/04/22 05:37:38;;;;;;;4.43;3.80;;;;;;;14.82;55.07;96833.03;5077872;28;20269;-71
2023/04/22 05:40:04;;;;;;;4.60;4.10;;;;;;;14.84;55.37;96844.22;5059333;28;20229;-70
2023/04/22 05:42:29;;;;;;;3.37;3.07;;;;;;;14.88;55.45;96842.81;5068197;28;20235;-69
2023/04/22 05:44:54;;;;;;;5.03;3.90;;;;;;;14.90;55.50;96843.47;5092498;28;20273;-71
2023/04/22 05:47:20;;;;;;;4.73;3.90;;;;;;;14.91;54.98;96836.38;5090747;28;20780;-69
2023/04/22 05:49:45;;;;;;;4.80;4.03;;;;;;;14.85;55.40;96832.69;5096135;28;20224;-73
2023/04/22 05:52:11;;;;;;;4.43;4.03;;;;;;;14.97;55.01;96835.59;5082096;28;20307;-70
2023/04/22 05:54:36;;;;;;;4.87;4.37;;;;;;;15.06;54.88;96833.66;5060616;28;20218;-70
2023/04/22 05:57:02;;;;;;;4.73;3.80;;;;;;;15.12;54.65;96840.81;5068848;28;20232;-70
2023/04/22 05:59:27;;;;;;;5.50;4.80;;;;;;;15.22;54.66;96840.50;5066921;28;20749;-71
2023/04/22 06:01:52;;;;;;;5.40;4.90;;;;;;;15.33;54.63;96832.03;5065305;28;20523;-70
2023/04/22 06:04:18;;;;;;;6.27;5.07;;;;;;;15.45;54.58;96837.63;5078892;28;20289;-70
2023/04/22 06:06:43;;;;;;;10.30;4.90;;;;;;;15.55;54.00;96836.47;5079411;28;20266;-71
2023/04/22 06:09:09;;;;;;;5.33;4.37;;;;;;;15.68;53.98;96838.41;5088411;28;20255;-71
2023/04/22 06:11:34;;;;;;;5.53;4.90;;;;;;;15.80;54.32;96842.94;5070754;28;20320;-70
2023/04/22 06:14:00;;;;;;;8.33;4.10;;;;;;;15.87;53.97;96842.19;5097308;28;20228;-71
2023/04/22 06:16:26;;;;;;;8.27;4.10;;;;;;;15.93;53.08;96838.75;5094755;28;20182;-70
2023/04/22 06:18:51;;;;;;;4.50;4.10;;;;;;;15.97;53.27;96848.72;5065316;28;20193;-69
2023/04/22 06:21:17;;;;;;;5.27;3.90;;;;;;;16.11;53.15;96841.72;5054606;28;20511;-69
2023/04/22 06:23:42;;;;;;;7.80;4.13;;;;;;;16.27;53.09;96845.00;5069802;28;20261;-71
2023/04/22 06:26:08;;;;;;;4.83;4.07;;;;;;;16.39;52.79;96839.97;5059052;28;20184;-70
2023/04/22 06:28:33;;;;;;;3.80;3.50;;;;;;;16.49;52.09;96842.25;5071259;28;20265;-70
2023/04/22 06:30:59;;;;;;;5.43;4.00;;;;;;;16.57;52.28;96848.16;5086968;28;20209;-71
2023/04/22 06:33:24;;;;;;;4.33;3.70;;;;;;;16.67;52.07;96849.63;5088280;28;20252;-69
2023/04/22 06:35:50;;;;;;;9.30;4.00;;;;;;;16.68;51.72;96844.13;5087533;28;20186;-69
2023/04/22 06:38:15;;;;;;;7.93;4.40;;;;;;;16.74;51.41;96851.28;5085746;28;20212;-71
2023/04/22 06:40:41;;;;;;;4.87;4.47;;;;;;;16.76;51.76;96855.56;5077153;28;20206;-70
2023/04/22 06:43:06;;;;;;;4.20;3.80;;;;;;;16.81;51.69;96850.47;5087336;28;20992;-71
2023/04/22 06:45:31;;;;;;;4.87;4.37;;;;;;;16.81;51.59;96853.09;5087481;28;20193;-69
2023/04/22 06:47:57;;;;;;;4.67;4.20;;;;;;;16.74;51.57;96853.91;5079299;28;20186;-71
2023/04/22 06:50:22;;;;;;;5.10;3.97;;;;;;;16.80;51.50;96857.59;5068525;28;20202;-69
2023/04/22 06:52:48;;;;;;;5.63;4.00;;;;;;;16.78;51.70;96856.16;5045349;28;20182;-72
2023/04/22 06:55:13;;;;;;;5.20;4.63;;;;;;;16.87;51.70;96858.41;5077884;28;20193;-71
2023/04/22 06:57:39;;;;;;;4.60;4.20;;;;;;;16.85;51.91;96857.00;5084971;28;20182;-72
2023/04/22 07:00:07;;;;;;;5.17;4.60;;;;;;;16.83;52.31;96857.16;5072800;28;20266;-71
2023/04/22 07:02:33;;;;;;;4.70;4.30;;;;;;;16.90;52.16;96854.53;5090394;28;20741;-70
2023/04/22 07:04:58;;;;;;;4.40;4.00;;;;;;;16.87;52.18;96853.13;5064012;28;20449;-72
2023/04/22 07:07:23;;;;;;;7.43;4.47;;;;;;;16.99;52.43;96848.09;5026984;28;20269;-70
2023/04/22 07:09:49;;;;;;;4.10;3.80;;;;;;;17.10;52.19;96849.31;5080312;28;20205;-70
2023/04/22 07:12:14;;;;;;;4.93;4.10;;;;;;;17.16;51.82;96850.31;5058731;28;20778;-71
2023/04/22 07:14:43;;;;;;;4.33;3.80;;;;;;;17.25;51.78;96849.13;5077839;28;20205;-71
2023/04/22 07:17:09;;;;;;;5.10;3.60;;;;;;;17.27;51.45;96844.41;5065078;28;20220;-73
2023/04/22 07:19:35;;;;;;;5.83;3.97;;;;;;;17.41;50.92;96841.78;5063828;28;20475;-72
2023/04/22 07:22:02;;;;;;;5.30;3.73;;;;;;;17.51;51.15;96836.91;5081146;28;20420;-71
2023/04/22 07:24:27;;;;;;;3.80;3.50;;;;;;;17.62;51.40;96835.44;5080588;28;20179;-71
2023/04/22 07:26:53;;;;;;;6.40;3.97;;;;;;;17.72;51.11;96830.53;5054687;28;20424;-72
2023/04/22 07:29:18;;;;;;;4.70;3.93;;;;;;;17.74;50.38;96833.78;5074092;28;20218;-68
2023/04/22 07:31:44;;;;;;;4.00;3.50;;;;;;;17.82;50.37;96827.44;5083085;28;20764;-69
2023/04/22 07:34:09;;;;;;;4.20;3.90;;;;;;;17.86;49.19;96822.53;5057554;28;20203;-71
2023/04/22 07:36:35;;;;;;;4.63;3.80;;;;;;;17.95;49.47;96823.97;5063348;28;20186;-70
2023/04/22 07:39:01;;;;;;;4.40;4.00;;;;;;;17.98;49.59;96826.19;5036236;28;20175;-71
2023/04/22 07:41:26;;;;;;;6.23;3.50;;;;;;;18.13;49.14;96815.38;5078415;28;20186;-71
2023/04/22 07:43:52;;;;;;;4.30;3.70;;;;;;;18.31;49.04;96827.09;5077329;28;20181;-71
2023/04/22 07:46:17;;;;;;;5.00;3.80;;;;;;;18.33;48.87;96825.06;5050951;28;20265;-70
2023/04/22 07:48:43;;;;;;;11.57;4.30;;;;;;;18.43;48.60;96836.03;5049627;28;20425;-71
2023/04/22 07:51:08;;;;;;;3.50;3.20;;;;;;;18.50;48.26;96836.81;5053888;28;20252;-72
2023/04/22 07:53:34;;;;;;;7.20;3.87;;;;;;;18.56;48.10;96830.66;5079433;28;20292;-70
2023/04/22 07:56:01;;;;;;;5.10;3.90;;;;;;;18.62;48.12;96842.25;5067519;28;20186;-71
2023/04/22 07:58:26;;;;;;;3.60;3.30;;;;;;;18.70;48.04;96855.28;5089667;28;20192;-71
2023/04/22 08:00:52;;;;;;;4.10;3.70;;;;;;;18.79;47.91;96842.56;5047995;28;20448;-71
2023/04/22 08:03:17;;;;;;;3.50;3.20;;;;;;;18.87;47.87;96847.63;5086759;28;20178;-70
2023/04/22 08:05:43;;;;;;;3.67;3.30;;;;;;;18.92;47.70;96848.81;5064603;28;20228;-70
2023/04/22 08:08:08;;;;;;;4.10;3.40;;;;;;;18.89;47.68;96860.69;5084803;28;20323;-70
2023/04/22 08:10:34;;;;;;;4.43;3.33;;;;;;;19.04;47.84;96844.47;5076778;28;20240;-70
2023/04/22 08:13:00;;;;;;;3.87;3.30;;;;;;;19.19;47.86;96850.28;5059665;28;20957;-72
2023/04/22 08:15:25;;;;;;;4.13;3.30;;;;;;;19.25;47.43;96858.44;5081580;28;20270;-71
2023/04/22 08:17:51;;;;;;;4.60;3.17;;;;;;;19.36;47.14;96844.44;5056612;28;20184;-70
2023/04/22 08:20:17;;;;;;;3.67;3.27;;;;;;;19.53;46.92;96843.91;5065248;28;20189;-70
2023/04/22 08:22:43;;;;;;;2.83;2.63;;;;;;;19.67;46.50;96837.41;5048699;28;20181;-72
2023/04/22 08:25:08;;;;;;;4.43;2.83;;;;;;;19.79;45.96;96840.97;5074847;28;20832;-72
2023/04/22 08:27:34;;;;;;;3.53;3.23;;;;;;;19.98;45.21;96845.50;5065574;28;20424;-70
2023/04/22 08:30:00;;;;;;;3.60;2.97;;;;;;;20.16;44.15;96842.06;5088154;28;20204;-70
2023/04/22 08:32:25;;;;;;;2.90;2.60;;;;;;;20.55;42.99;96839.91;5064677;28;20530;-72
2023/04/22 08:34:51;;;;;;;2.80;2.60;;;;;;;20.87;42.18;96842.41;5082155;28;20256;-71
2023/04/22 08:37:16;;;;;;;4.10;2.70;;;;;;;21.09;41.60;96840.03;5085207;28;20191;-72
2023/04/22 08:39:42;;;;;;;9.73;3.00;;;;;;;21.31;41.33;96832.28;5078551;28;20305;-72
2023/04/22 08:42:08;;;;;;;2.73;2.53;;;;;;;21.33;41.40;96832.06;5069724;28;20648;-70
2023/04/22 08:44:34;;;;;;;4.53;3.13;;;;;;;21.68;40.89;96833.13;5060341;28;20262;-72
2023/04/22 08:47:00;;;;;;;3.30;3.00;;;;;;;21.84;39.60;96829.75;5051445;28;20468;-70
2023/04/22 08:49:26;;;;;;;5.27;3.13;;;;;;;22.05;40.05;96824.88;5060226;28;20484;-70
2023/04/22 08:51:52;;;;;;;4.17;2.87;;;;;;;22.17;40.06;96822.16;5056573;28;20282;-70
2023/04/22 08:54:18;;;;;;;3.20;3.00;;;;;;;22.58;39.79;96822.16;5079541;28;20209;-70
2023/04/22 08:56:44;;;;;;;2.87;2.57;;;;;;;22.88;39.36;96831.78;5055959;28;20433;-69
2023/04/22 08:59:10;;;;;;;2.90;2.63;;;;;;;22.99;37.62;96822.88;5067960;28;20285;-70
2023/04/22 09:01:37;;;;;;;5.07;2.60;;;;;;;23.17;37.70;96824.53;5086797;28;20455;-70
2023/04/22 09:04:03;;;;;;;5.27;3.63;;;;;;;22.85;37.20;96827.75;5073421;28;20447;-70
2023/04/22 09:06:29;;;;;;;3.43;2.57;;;;;;;22.88;37.28;96815.75;5077784;28;20847;-71
2023/04/22 09:08:57;;;;;;;2.60;2.40;;;;;;;23.13;36.93;96815.34;5062666;28;20185;-71
2023/04/22 09:11:25;;;;;;;3.17;2.70;;;;;;;23.33;36.06;96816.78;5079183;28;21057;-72
2023/04/22 09:13:52;;;;;;;2.77;2.50;;;;;;;23.56;35.41;96810.44;5086603;28;20455;-72
2023/04/22 09:16:18;;;;;;;5.03;2.50;;;;;;;23.60;35.17;96814.22;5081338;28;21154;-69
2023/04/22 09:18:46;;;;;;;2.90;2.40;;;;;;;23.47;35.84;96813.53;5065828;28;20455;-70
2023/04/22 09:21:12;;;;;;;3.43;2.70;;;;;;;23.47;35.39;96810.84;5068143;28;20201;-72
2023/04/22 09:23:51;;;;;;;3.30;2.50;;;;;;;23.48;35.83;96803.66;5088375;28;20432;-72
2023/04/22 09:26:19;;;;;;;5.20;2.67;;;;;;;23.75;36.12;96806.44;5067786;28;20189;-70
2023/04/22 09:28:49;;;;;;;5.43;2.70;;;;;;;23.93;35.86;96815.22;5070281;28;21013;-70
2023/04/22 09:31:14;;;;;;;3.10;2.40;;;;;;;24.05;35.67;96807.91;5089429;28;20432;-70
2023/04/22 09:33:41;;;;;;;2.50;1.97;;;;;;;24.11;34.83;96810.63;5056809;28;20515;-70
2023/04/22 09:36:09;;;;;;;2.80;2.13;;;;;;;24.33;35.00;96803.41;5078885;28;20984;-71
2023/04/22 09:38:35;;;;;;;2.80;2.50;;;;;;;24.36;34.52;96808.25;5078544;28;20194;-71
2023/04/22 09:41:00;;;;;;;3.97;2.10;;;;;;;24.33;34.37;96803.41;5078665;28;20530;-71
2023/04/22 09:43:26;;;;;;;4.07;2.33;;;;;;;24.54;34.64;96804.44;5064673;28;20265;-71
2023/04/22 09:45:51;;;;;;;3.80;2.40;;;;;;;24.40;34.61;96797.84;5087729;28;20277;-71
2023/04/22 09:48:17;;;;;;;2.90;2.20;;;;;;;24.38;33.71;96795.44;5087564;28;20560;-70
2023/04/22 09:50:48;;;;;;;3.43;1.87;;;;;;;24.63;33.41;96802.13;5064314;28;20254;-72
2023/04/22 09:53:17;;;;;;;2.20;1.90;;;;;;;24.82;32.21;96804.47;5049280;28;20941;-71
2023/04/22 09:55:48;;;;;;;2.80;1.50;;;;;;;25.02;32.01;96792.31;5063042;28;20427;-74
2023/04/22 09:58:16;;;;;;;5.23;2.20;;;;;;;25.15;31.68;96797.25;5062135;28;20530;-71
2023/04/22 10:00:43;;;;;;;2.53;1.90;;;;;;;25.08;31.54;96796.63;5053765;28;20452;-72
2023/04/22 10:03:08;;;;;;;3.00;1.87;;;;;;;25.25;30.74;96788.47;5061914;28;20425;-72
2023/04/22 10:05:36;;;;;;;2.17;1.87;;;;;;;25.57;30.77;96776.91;5058836;28;20845;-71
2023/04/22 10:08:07;;;;;;;6.23;2.03;;;;;;;25.91;30.25;96773.84;5076879;28;20193;-72
2023/04/22 10:10:33;;;;;;;7.07;2.00;;;;;;;26.25;29.35;96769.97;5066640;28;20443;-72
2023/04/22 10:13:05;;;;;;;2.60;1.50;;;;;;;26.35;29.13;96770.81;5089618;28;20925;-71
2023/04/22 10:15:41;;;;;;;2.60;2.00;;;;;;;26.62;29.78;96774.34;5090919;28;20608;-70
2023/04/22 10:18:09;;;;;;;2.90;1.60;;;;;;;26.94;28.92;96776.03;5079246;28;20758;-70
2023/04/22 10:20:39;;;;;;;8.70;2.30;;;;;;;27.11;29.25;96779.22;5089396;28;20432;-69
2023/04/22 10:23:10;;;;;;;2.40;1.83;;;;;;;26.83;26.78;96775.22;5047130;28;21012;-72
2023/04/22 10:25:38;;;;;;;3.50;1.73;;;;;;;26.22;27.58;96772.09;5066737;28;20419;-72
2023/04/22 10:28:08;;;;;;;2.80;1.60;;;;;;;26.65;26.48;96771.13;5061843;28;20514;-71
2023/04/22 10:30:36;;;;;;;1.97;1.50;;;;;;;26.84;26.42;96763.38;5088905;28;20443;-71
2023/04/22 10:33:20;;;;;;;1.90;1.50;;;;;;;26.58;24.96;96765.22;5060333;28;20432;-73
2023/04/22 10:36:04;;;;;;;1.40;1.23;;;;;;;26.98;25.40;96761.78;5065013;28;20432;-72
2023/04/22 10:38:33;;;;;;;2.40;1.70;;;;;;;27.12;25.35;96762.03;5087390;28;20407;-72
2023/04/22 10:40:59;;;;;;;2.63;1.40;;;;;;;27.38;25.39;96751.22;5084150;28;20530;-72
2023/04/22 10:44:06;;;;;;;1.70;1.50;;;;;;;27.45;24.08;96745.59;5082226;28;20519;-71
2023/04/22 10:46:31;;;;;;;2.03;1.30;;;;;;;27.25;24.58;96744.53;4969457;28;20194;-71
2023/04/22 10:48:58;;;;;;;4.93;1.57;;;;;;;27.30;23.28;96746.41;4971030;28;20930;-72
2023/04/22 10:51:43;;;;;;;1.60;1.50;;;;;;;27.39;24.76;96733.22;5021303;28;21549;-70
2023/04/22 10:57:04;;;;;;;2.53;1.60;;;;;;;27.70;23.19;96741.22;5086863;28;20420;-72
2023/04/22 10:59:31;;;;;;;1.93;1.40;;;;;;;27.42;21.56;96744.25;5089996;28;20518;-70
2023/04/22 11:02:01;;;;;;;2.53;1.50;;;;;;;27.55;21.17;96745.56;5091017;28;20476;-70
2023/04/22 11:04:26;;;;;;;3.53;1.60;;;;;;;27.38;20.70;96747.75;5070006;28;20513;-70
2023/04/22 11:07:19;;;;;;;2.33;1.67;;;;;;;27.66;21.22;96743.66;5091340;28;20428;-72
2023/04/22 11:09:46;;;;;;;1.50;1.37;;;;;;;27.93;21.94;96747.88;5059741;28;20202;-72
2023/04/22 11:12:41;;;;;;;3.83;1.63;;;;;;;28.07;21.45;96742.69;5092229;28;20422;-71
2023/04/22 11:15:14;;;;;;;3.17;1.23;;;;;;;27.75;21.42;96747.38;5094116;28;20462;-72
2023/04/22 11:17:44;;;;;;;6.63;1.70;;;;;;;27.93;20.95;96749.75;5068671;28;20436;-71
2023/04/22 11:20:11;;;;;;;5.00;1.60;;;;;;;27.16;21.43;96750.72;5094464;28;21026;-71
2023/04/22 11:22:39;;;;;;;2.63;1.97;;;;;;;27.67;21.52;96750.66;5089537;28;20492;-71
2023/04/22 11:25:05;;;;;;;3.20;1.60;;;;;;;27.63;21.42;96740.72;5089074;28;20918;-72
2023/04/22 11:27:31;;;;;;;3.70;1.97;;;;;;;28.04;20.94;96735.97;5070968;28;20428;-72
2023/04/22 11:30:10;;;;;;;4.30;2.30;;;;;;;28.05;20.68;96744.84;5075702;28;20233;-71
2023/04/22 11:32:38;;;;;;;3.83;1.93;;;;;;;28.30;20.64;96740.44;5082617;28;20181;-71